Time;durP1;ratioP1;P1;durP2;ratioP2;P2;SDS_P1;SDS_P2;PMS_P1;PMS_P2;Temp;Humidity;BMP_temperature;BMP_pressure;BME280_temperature;BME280_humidity;BME280_pressure;Samples;Min_cycle;Max_cycle;Signal;HPM_P1;HPM_P2
2023/07/30 00:01:11;;;;;;;4.10;3.70;;;18.70;39.80;;;;;;4972693;28;20264;-72
2023/07/30 00:03:37;;;;;;;5.30;3.03;;;18.60;41.10;;;;;;4972638;28;20197;-72
2023/07/30 00:06:02;;;;;;;3.23;2.77;;;18.50;42.10;;;;;;4974745;28;20216;-72
2023/07/30 00:08:28;;;;;;;5.30;3.80;;;18.40;42.90;;;;;;4976872;28;20251;-72
2023/07/30 00:10:57;;;;;;;3.77;3.20;;;18.40;44.20;;;;;;4976887;28;20185;-72
2023/07/30 00:13:23;;;;;;;5.27;2.73;;;18.30;43.80;;;;;;4976364;28;20212;-73
2023/07/30 00:15:49;;;;;;;4.60;3.03;;;18.30;43.90;;;;;;4976558;28;20917;-73
2023/07/30 00:18:15;;;;;;;3.53;2.70;;;18.30;45.50;;;;;;4976721;28;20173;-73
2023/07/30 00:20:41;;;;;;;4.80;3.40;;;18.30;47.40;;;;;;4976532;28;20440;-72
2023/07/30 00:23:06;;;;;;;3.10;2.80;;;18.40;46.80;;;;;;4977096;28;20455;-72
2023/07/30 00:25:32;;;;;;;4.30;3.10;;;18.50;45.80;;;;;;4976459;28;20212;-72
2023/07/30 00:27:57;;;;;;;3.97;2.97;;;18.60;44.70;;;;;;4976549;28;20181;-70
2023/07/30 00:30:23;;;;;;;5.20;3.10;;;18.60;43.80;;;;;;4976006;28;20587;-71
2023/07/30 00:32:48;;;;;;;3.40;2.67;;;18.60;43.90;;;;;;4975931;28;20217;-71
2023/07/30 00:35:14;;;;;;;3.70;2.43;;;18.60;43.80;;;;;;4976065;28;20201;-71
2023/07/30 00:37:40;;;;;;;6.57;3.30;;;18.60;44.60;;;;;;4976028;28;20181;-72
2023/07/30 00:40:06;;;;;;;4.50;3.53;;;18.60;44.90;;;;;;4976117;28;20977;-71
2023/07/30 00:42:31;;;;;;;5.40;3.37;;;18.60;44.80;;;;;;4975953;28;20189;-71
2023/07/30 00:44:57;;;;;;;4.33;3.43;;;18.60;44.60;;;;;;4976024;28;20506;-72
2023/07/30 00:47:23;;;;;;;4.57;3.30;;;18.50;44.90;;;;;;4975582;28;20186;-72
2023/07/30 00:49:50;;;;;;;4.47;3.70;;;18.50;46.40;;;;;;4975859;28;20189;-72
2023/07/30 00:52:20;;;;;;;3.83;3.07;;;18.40;46.80;;;;;;4975797;28;20240;-72
2023/07/30 00:54:51;;;;;;;3.03;2.63;;;18.40;47.90;;;;;;4975767;28;20795;-72
2023/07/30 00:57:18;;;;;;;4.07;3.40;;;18.50;48.20;;;;;;4975807;28;20436;-72
2023/07/30 00:59:44;;;;;;;4.20;3.30;;;18.50;46.80;;;;;;4975582;28;20421;-72
2023/07/30 01:02:10;;;;;;;4.63;3.30;;;18.60;44.60;;;;;;4975525;28;20448;-72
2023/07/30 01:04:37;;;;;;;8.70;3.40;;;18.60;44.90;;;;;;4975815;28;20452;-72
2023/07/30 01:07:03;;;;;;;4.00;2.87;;;18.70;43.90;;;;;;4975500;28;20419;-72
2023/07/30 01:09:29;;;;;;;3.10;2.53;;;18.70;43.90;;;;;;4975383;28;20173;-72
2023/07/30 01:11:55;;;;;;;4.67;3.30;;;18.70;42.50;;;;;;4975321;28;20463;-72
2023/07/30 01:14:21;;;;;;;5.90;3.70;;;18.70;40.90;;;;;;4997757;23;20221;-70
2023/07/30 01:16:47;;;;;;;3.80;2.60;;;18.70;40.50;;;;;;4975039;28;20409;-70
2023/07/30 01:19:12;;;;;;;4.20;3.20;;;18.80;39.30;;;;;;4975615;28;20413;-70
2023/07/30 01:21:38;;;;;;;3.37;2.40;;;18.70;40.10;;;;;;4975262;28;20180;-68
2023/07/30 01:24:04;;;;;;;3.70;2.30;;;18.70;38.70;;;;;;4975592;28;20268;-68
2023/07/30 01:27:01;;;;;;;2.80;1.93;;;18.60;37.70;;;;;;4975847;28;20173;-68
2023/07/30 01:29:51;;;;;;;4.00;2.97;;;18.50;39.10;;;;;;4975620;28;20401;-68
2023/07/30 01:32:19;;;;;;;5.00;2.53;;;18.40;38.50;;;;;;4976078;28;20535;-68
2023/07/30 01:34:46;;;;;;;4.53;2.60;;;18.50;38.50;;;;;;4975261;28;20926;-68
2023/07/30 01:37:14;;;;;;;3.30;2.90;;;18.40;38.50;;;;;;4975407;28;20472;-68
2023/07/30 01:39:41;;;;;;;4.27;2.23;;;18.30;37.60;;;;;;4975109;28;20464;-68
2023/07/30 01:42:07;;;;;;;3.87;2.50;;;18.20;38.50;;;;;;4974857;28;20412;-68
2023/07/30 01:44:32;;;;;;;3.67;2.73;;;18.20;38.60;;;;;;4975046;28;20960;-68
2023/07/30 01:46:58;;;;;;;2.80;2.50;;;18.20;38.30;;;;;;4973973;28;20670;-69
2023/07/30 01:49:23;;;;;;;2.70;2.10;;;18.20;38.30;;;;;;4975072;28;20181;-69
2023/07/30 01:51:49;;;;;;;3.60;2.57;;;18.10;38.10;;;;;;4974571;28;20259;-69
2023/07/30 01:54:14;;;;;;;4.00;3.03;;;18.00;38.10;;;;;;4974866;28;20718;-69
2023/07/30 01:56:40;;;;;;;3.10;2.10;;;17.90;38.90;;;;;;4974907;28;20189;-69
2023/07/30 01:59:05;;;;;;;4.93;3.20;;;17.80;40.00;;;;;;4974747;28;20577;-68
2023/07/30 02:01:31;;;;;;;3.70;2.10;;;17.70;40.80;;;;;;4974689;28;20203;-69
2023/07/30 02:03:56;;;;;;;6.70;2.47;;;17.60;41.30;;;;;;4974742;28;20189;-69
2023/07/30 02:06:22;;;;;;;3.67;2.23;;;17.60;42.20;;;;;;4974830;28;20169;-69
2023/07/30 02:08:48;;;;;;;3.97;2.57;;;17.50;42.90;;;;;;4973462;28;20173;-69
2023/07/30 02:11:13;;;;;;;3.80;2.90;;;17.50;42.90;;;;;;4974656;28;20178;-68
2023/07/30 02:13:39;;;;;;;3.10;2.77;;;17.50;42.90;;;;;;4974163;28;20286;-69
2023/07/30 02:16:04;;;;;;;4.67;3.20;;;17.40;44.20;;;;;;4973427;28;20594;-69
2023/07/30 02:18:30;;;;;;;3.57;2.67;;;17.40;43.60;;;;;;4974733;28;20321;-68
2023/07/30 02:20:55;;;;;;;2.93;2.37;;;17.40;42.80;;;;;;4974646;28;20254;-68
2023/07/30 02:23:21;;;;;;;4.23;2.57;;;17.40;43.60;;;;;;4974259;28;20232;-69
2023/07/30 02:25:46;;;;;;;3.60;2.97;;;17.50;44.50;;;;;;4973000;28;20200;-69
2023/07/30 02:28:12;;;;;;;3.60;2.83;;;17.60;44.30;;;;;;4973894;28;20185;-69
2023/07/30 02:30:37;;;;;;;5.00;2.20;;;17.60;44.20;;;;;;4974033;28;20185;-68
2023/07/30 02:33:03;;;;;;;3.90;2.60;;;17.60;44.30;;;;;;4973271;28;20303;-68
2023/07/30 02:35:28;;;;;;;2.90;2.13;;;17.60;42.90;;;;;;4974694;28;20244;-69
2023/07/30 02:37:54;;;;;;;2.77;1.80;;;17.60;42.60;;;;;;4974508;28;20177;-68
2023/07/30 02:40:20;;;;;;;3.50;2.50;;;17.50;42.90;;;;;;4974562;28;20177;-68
2023/07/30 02:42:45;;;;;;;3.30;2.40;;;17.50;43.40;;;;;;4973797;28;20717;-69
2023/07/30 02:45:11;;;;;;;2.67;2.27;;;17.40;43.90;;;;;;4974250;28;20317;-69
2023/07/30 02:47:36;;;;;;;3.50;2.43;;;17.40;44.90;;;;;;4974312;28;20555;-69
2023/07/30 02:50:04;;;;;;;5.10;3.00;;;17.30;45.30;;;;;;4974073;28;20189;-69
2023/07/30 02:52:29;;;;;;;4.67;3.00;;;17.30;46.20;;;;;;4972349;28;20635;-69
2023/07/30 02:54:55;;;;;;;3.13;2.30;;;17.30;45.80;;;;;;4974076;28;20523;-69
2023/07/30 02:57:20;;;;;;;4.20;3.27;;;17.20;46.60;;;;;;4974215;28;20180;-69
2023/07/30 02:59:46;;;;;;;8.73;2.47;;;17.20;46.30;;;;;;4974004;28;20185;-69
2023/07/30 03:02:11;;;;;;;2.80;2.30;;;17.20;46.10;;;;;;4973446;28;20181;-69
2023/07/30 03:04:37;;;;;;;4.40;2.97;;;17.10;45.70;;;;;;4972916;28;20205;-69
2023/07/30 03:07:02;;;;;;;3.57;2.03;;;17.10;45.90;;;;;;4974368;28;20186;-69
2023/07/30 03:09:28;;;;;;;3.43;2.50;;;17.00;46.10;;;;;;4974606;28;20188;-68
2023/07/30 03:11:54;;;;;;;3.50;2.53;;;17.00;47.00;;;;;;4973629;28;20695;-69
2023/07/30 03:14:22;;;;;;;2.93;1.93;;;16.90;46.70;;;;;;4973934;28;20252;-69
2023/07/30 03:16:48;;;;;;;3.30;1.90;;;17.00;45.30;;;;;;4973946;28;20181;-69
2023/07/30 03:19:14;;;;;;;3.20;2.67;;;16.90;45.20;;;;;;4973414;28;20805;-68
2023/07/30 03:21:40;;;;;;;2.93;2.03;;;16.90;46.60;;;;;;4974344;28;20431;-68
2023/07/30 03:24:06;;;;;;;3.80;2.50;;;16.90;45.70;;;;;;4972406;28;20553;-69
2023/07/30 03:26:31;;;;;;;4.17;2.53;;;16.90;46.20;;;;;;4973585;28;20592;-69
2023/07/30 03:28:57;;;;;;;3.00;1.90;;;16.90;47.50;;;;;;4973703;28;20639;-69
2023/07/30 03:31:22;;;;;;;2.57;2.00;;;16.90;46.60;;;;;;4972161;28;20173;-69
2023/07/30 03:33:48;;;;;;;4.60;2.23;;;16.90;47.50;;;;;;4973093;28;20619;-69
2023/07/30 03:36:14;;;;;;;3.90;2.43;;;17.00;46.80;;;;;;4973195;28;20177;-69
2023/07/30 03:38:40;;;;;;;3.77;2.10;;;17.10;46.30;;;;;;4973309;28;20590;-69
2023/07/30 03:41:06;;;;;;;4.10;2.67;;;17.10;44.90;;;;;;4973063;28;20934;-70
2023/07/30 03:43:32;;;;;;;3.80;2.17;;;17.20;43.70;;;;;;4972998;28;20760;-70
2023/07/30 03:45:58;;;;;;;3.93;3.03;;;17.20;45.00;;;;;;4973319;28;20412;-70
2023/07/30 03:48:23;;;;;;;2.90;2.20;;;17.20;45.30;;;;;;4973463;28;20458;-70
2023/07/30 03:50:49;;;;;;;8.63;2.50;;;17.30;43.10;;;;;;4973217;28;20184;-70
2023/07/30 03:53:14;;;;;;;3.30;1.97;;;17.40;43.20;;;;;;4972822;28;20205;-67
2023/07/30 03:55:40;;;;;;;3.63;2.67;;;17.50;42.00;;;;;;4973156;28;20197;-67
2023/07/30 03:58:06;;;;;;;4.73;2.37;;;17.50;40.40;;;;;;4973126;28;20182;-67
2023/07/30 04:00:32;;;;;;;4.10;2.50;;;17.50;40.40;;;;;;4973453;28;20401;-67
2023/07/30 04:02:58;;;;;;;4.40;2.30;;;17.60;40.20;;;;;;4972927;28;20173;-69
2023/07/30 04:05:23;;;;;;;3.00;2.40;;;17.60;38.90;;;;;;4972116;28;20505;-68
2023/07/30 04:07:49;;;;;;;3.47;2.43;;;17.60;40.10;;;;;;4973329;28;20607;-69
2023/07/30 04:10:14;;;;;;;2.67;1.73;;;17.70;38.50;;;;;;4973268;28;20185;-69
2023/07/30 04:12:40;;;;;;;2.50;2.17;;;17.80;38.30;;;;;;4973344;28;20212;-68
2023/07/30 04:15:06;;;;;;;2.83;2.50;;;17.80;39.10;;;;;;4972945;28;20212;-69
2023/07/30 04:17:31;;;;;;;3.13;2.33;;;17.90;38.00;;;;;;4971666;28;20220;-69
2023/07/30 04:19:57;;;;;;;2.97;1.60;;;18.00;37.50;;;;;;4972770;28;20497;-69
2023/07/30 04:22:22;;;;;;;2.43;1.83;;;18.10;36.50;;;;;;4972739;28;20552;-69
2023/07/30 04:24:48;;;;;;;3.07;2.50;;;18.10;36.20;;;;;;4972997;28;20205;-69
2023/07/30 04:27:13;;;;;;;3.33;2.80;;;18.20;36.10;;;;;;4971530;28;20297;-69
2023/07/30 04:29:39;;;;;;;2.77;2.00;;;18.10;36.30;;;;;;4972740;28;20272;-69
2023/07/30 04:32:05;;;;;;;3.80;2.63;;;18.20;36.10;;;;;;4972528;28;20295;-69
2023/07/30 04:34:31;;;;;;;2.50;1.67;;;18.20;36.20;;;;;;4972887;28;20197;-69
2023/07/30 04:36:56;;;;;;;3.50;2.20;;;18.30;35.90;;;;;;4971548;28;20416;-69
2023/07/30 04:39:22;;;;;;;3.57;2.30;;;18.30;35.60;;;;;;4971431;28;20181;-69
2023/07/30 04:41:47;;;;;;;4.10;2.17;;;18.40;35.50;;;;;;4972503;28;20181;-69
2023/07/30 04:44:13;;;;;;;3.87;1.87;;;18.50;34.50;;;;;;4972799;28;20643;-69
2023/07/30 04:46:38;;;;;;;2.70;1.93;;;18.40;35.70;;;;;;4971495;28;20185;-68
2023/07/30 04:49:04;;;;;;;2.73;1.87;;;18.40;34.90;;;;;;4972553;28;20189;-68
2023/07/30 04:51:29;;;;;;;3.13;2.10;;;18.30;34.70;;;;;;4972373;28;20181;-68
2023/07/30 04:53:55;;;;;;;6.90;3.17;;;18.40;33.10;;;;;;4975822;28;20228;-68
2023/07/30 04:56:21;;;;;;;4.00;2.47;;;18.30;33.10;;;;;;4976013;28;20181;-69
2023/07/30 04:58:46;;;;;;;3.10;2.23;;;18.40;33.20;;;;;;4976008;28;20177;-70
2023/07/30 05:01:12;;;;;;;2.10;1.43;;;18.40;31.70;;;;;;4974761;28;20192;-70
2023/07/30 05:03:37;;;;;;;2.97;2.37;;;18.40;33.00;;;;;;4974349;28;20181;-70
2023/07/30 05:06:03;;;;;;;3.60;2.20;;;18.40;32.00;;;;;;4975852;28;20234;-70
2023/07/30 05:08:28;;;;;;;3.47;2.13;;;18.40;33.10;;;;;;4975766;28;20177;-70
2023/07/30 05:10:54;;;;;;;4.30;2.73;;;18.60;32.60;;;;;;4975753;28;20189;-70
2023/07/30 05:13:19;;;;;;;3.70;2.00;;;18.80;31.70;;;;;;4975459;28;20685;-70
2023/07/30 05:15:45;;;;;;;3.60;2.30;;;19.10;31.40;;;;;;4975586;28;20574;-70
2023/07/30 05:18:10;;;;;;;3.10;1.53;;;19.30;28.30;;;;;;4975769;28;20612;-70
2023/07/30 05:20:36;;;;;;;2.80;1.60;;;19.50;28.10;;;;;;4975741;28;20177;-70
2023/07/30 05:23:02;;;;;;;4.37;2.27;;;19.50;24.40;;;;;;4975359;28;20196;-70
2023/07/30 05:25:28;;;;;;;3.20;1.90;;;19.70;25.00;;;;;;4975490;28;20197;-70
2023/07/30 05:27:53;;;;;;;2.70;1.83;;;19.70;23.00;;;;;;4975473;28;20224;-69
2023/07/30 05:30:19;;;;;;;3.30;1.90;;;19.70;24.00;;;;;;4973857;28;20421;-69
2023/07/30 05:32:44;;;;;;;3.10;2.00;;;19.80;23.40;;;;;;4974991;28;20237;-69
2023/07/30 05:35:10;;;;;;;2.70;2.00;;;19.90;21.10;;;;;;4975513;28;20196;-69
2023/07/30 05:37:35;;;;;;;2.30;1.30;;;20.00;21.40;;;;;;4975525;28;20173;-68
2023/07/30 05:40:01;;;;;;;2.90;2.07;;;20.10;20.40;;;;;;4974673;28;20187;-68
2023/07/30 05:42:26;;;;;;;2.93;1.73;;;20.30;20.40;;;;;;4975260;28;20185;-68
2023/07/30 05:44:52;;;;;;;2.00;1.33;;;20.60;18.30;;;;;;4974638;28;20549;-68
2023/07/30 05:47:17;;;;;;;2.73;1.47;;;20.80;17.10;;;;;;4974353;28;20207;-68
2023/07/30 05:49:43;;;;;;;3.10;1.67;;;20.80;17.10;;;;;;4975205;28;20193;-68
2023/07/30 05:52:09;;;;;;;2.93;1.70;;;20.60;16.60;;;;;;4974644;28;20197;-68
2023/07/30 05:54:34;;;;;;;2.77;1.70;;;20.60;16.70;;;;;;4974786;28;20197;-68
2023/07/30 05:57:00;;;;;;;2.57;1.77;;;20.70;17.00;;;;;;4975075;28;20204;-68
2023/07/30 05:59:25;;;;;;;5.87;2.13;;;21.00;16.60;;;;;;4973637;28;20185;-69
2023/07/30 06:01:51;;;;;;;2.57;1.80;;;21.60;15.50;;;;;;4974572;28;20173;-68
2023/07/30 06:04:16;;;;;;;2.60;2.00;;;21.90;13.40;;;;;;4973998;28;20241;-69
2023/07/30 06:06:42;;;;;;;3.23;2.13;;;21.90;11.30;;;;;;4974700;28;20287;-69
2023/07/30 06:09:07;;;;;;;3.50;2.03;;;21.90;12.40;;;;;;4974117;28;20189;-69
2023/07/30 06:11:33;;;;;;;2.80;1.73;;;22.30;11.90;;;;;;4973105;28;20188;-69
2023/07/30 06:13:59;;;;;;;4.30;2.27;;;22.10;12.30;;;;;;4974498;28;20590;-69
2023/07/30 06:16:24;;;;;;;2.03;1.27;;;23.60;10.10;;;;;;4974546;28;20662;-69
2023/07/30 06:18:50;;;;;;;2.40;1.90;;;24.20;5.80;;;;;;4973382;28;20730;-69
2023/07/30 06:21:15;;;;;;;2.47;1.37;;;23.90;5.30;;;;;;4974420;28;20248;-69
2023/07/30 06:23:41;;;;;;;2.97;2.00;;;23.80;6.10;;;;;;4974032;28;20189;-69
2023/07/30 06:26:06;;;;;;;3.13;1.97;;;23.50;6.30;;;;;;4974408;28;20208;-70
2023/07/30 06:28:35;;;;;;;4.53;1.70;;;22.90;9.00;;;;;;4974477;28;20642;-68
2023/07/30 06:31:04;;;;;;;2.50;1.40;;;22.80;9.50;;;;;;4974174;28;20181;-68
2023/07/30 06:33:30;;;;;;;2.53;1.97;;;22.70;10.90;;;;;;4969482;28;20521;-68
2023/07/30 06:35:55;;;;;;;3.20;2.10;;;23.20;10.90;;;;;;4969714;28;20494;-71
2023/07/30 06:38:22;;;;;;;2.60;2.23;;;23.60;8.80;;;;;;4971958;28;20200;-69
2023/07/30 06:40:47;;;;;;;3.20;2.10;;;24.10;7.30;;;;;;4973572;28;20184;-68
2023/07/30 06:43:13;;;;;;;5.37;2.03;;;24.20;5.80;;;;;;4973603;28;20433;-69
2023/07/30 06:45:38;;;;;;;3.27;2.30;;;24.40;5.70;;;;;;4973574;28;20205;-69
2023/07/30 06:48:04;;;;;;;2.97;1.70;;;23.90;5.60;;;;;;4973793;28;20185;-68
2023/07/30 06:50:30;;;;;;;2.80;2.03;;;23.90;5.70;;;;;;4973806;28;20193;-69
2023/07/30 06:52:55;;;;;;;2.30;1.90;;;24.30;6.50;;;;;;4973266;28;20208;-69
2023/07/30 06:55:21;;;;;;;3.07;2.57;;;25.80;1.00;;;;;;4972158;28;20224;-68
2023/07/30 06:57:46;;;;;;;3.67;2.93;;;29.00;1.00;;;;;;4973745;28;20662;-68
2023/07/30 07:00:12;;;;;;;2.57;2.37;;;30.50;1.00;;;;;;4972045;28;20547;-69
2023/07/30 07:02:38;;;;;;;3.20;2.90;;;30.30;1.00;;;;;;4968980;28;20194;-69
2023/07/30 07:05:05;;;;;;;2.40;2.20;;;30.90;1.00;;;;;;4973255;28;20463;-69
2023/07/30 07:07:30;;;;;;;4.20;2.83;;;30.10;1.00;;;;;;4972589;28;20189;-70
2023/07/30 07:09:56;;;;;;;3.00;2.70;;;29.10;1.00;;;;;;4973237;28;20435;-69
2023/07/30 07:12:24;;;;;;;2.90;2.63;;;28.70;1.00;;;;;;4972574;28;20205;-70
2023/07/30 07:14:50;;;;;;;2.23;1.83;;;28.00;1.00;;;;;;4973323;28;20216;-70
2023/07/30 07:17:15;;;;;;;2.20;1.97;;;26.60;1.00;;;;;;4973466;28;20432;-69
2023/07/30 07:19:41;;;;;;;3.30;2.10;;;25.60;1.00;;;;;;4973891;28;20185;-70
2023/07/30 07:22:06;;;;;;;1.77;1.30;;;25.20;1.00;;;;;;4973382;28;20186;-69
2023/07/30 07:24:32;;;;;;;2.80;1.80;;;24.60;1.00;;;;;;4974364;28;20207;-71
2023/07/30 07:26:58;;;;;;;2.10;1.43;;;24.70;1.00;;;;;;4980537;28;20177;-70
2023/07/30 07:29:23;;;;;;;3.47;2.00;;;24.20;1.00;;;;;;4973933;28;20301;-70
2023/07/30 07:31:49;;;;;;;2.20;1.30;;;23.80;1.80;;;;;;4971527;28;20181;-69
2023/07/30 07:34:14;;;;;;;2.93;1.80;;;23.50;3.00;;;;;;4967383;28;20393;-69
2023/07/30 07:36:40;;;;;;;3.03;2.07;;;23.90;2.60;;;;;;4980747;28;20550;-70
2023/07/30 07:39:06;;;;;;;2.50;1.80;;;24.50;1.40;;;;;;4965559;28;20228;-68
2023/07/30 07:41:31;;;;;;;2.13;1.73;;;25.00;1.00;;;;;;4954436;28;20181;-70
2023/07/30 07:43:57;;;;;;;3.47;2.40;;;24.90;1.00;;;;;;4969049;28;20448;-69
2023/07/30 07:46:23;;;;;;;4.90;2.57;;;24.60;1.00;;;;;;4968504;28;20234;-70
2023/07/30 07:48:48;;;;;;;2.40;1.50;;;24.00;1.00;;;;;;4966128;28;20273;-70
2023/07/30 07:51:14;;;;;;;3.73;1.73;;;23.50;4.50;;;;;;4956211;28;20197;-69
2023/07/30 07:53:39;;;;;;;2.43;1.50;;;22.60;8.80;;;;;;4949944;29;20217;-69
2023/07/30 07:56:05;;;;;;;2.50;1.50;;;21.60;14.60;;;;;;4979943;28;20181;-70
2023/07/30 07:58:32;;;;;;;3.00;2.07;;;21.00;19.50;;;;;;4972635;28;20189;-70
2023/07/30 08:00:58;;;;;;;3.80;2.00;;;20.30;22.70;;;;;;4969770;28;20188;-70
2023/07/30 08:03:26;;;;;;;3.23;1.83;;;19.90;27.90;;;;;;4949992;28;20430;-69
2023/07/30 08:05:52;;;;;;;7.03;1.80;;;19.70;29.10;;;;;;4972929;28;20452;-69
2023/07/30 08:08:17;;;;;;;2.27;1.70;;;19.50;29.10;;;;;;4969184;28;20531;-70
2023/07/30 08:10:45;;;;;;;2.23;1.40;;;19.30;29.60;;;;;;4974707;28;20573;-69
2023/07/30 08:13:11;;;;;;;2.90;1.30;;;19.30;30.30;;;;;;4988644;28;20197;-69
2023/07/30 08:15:36;;;;;;;8.40;2.50;;;19.60;31.50;;;;;;4987686;28;20448;-69
2023/07/30 08:18:02;;;;;;;7.50;1.73;;;20.00;30.40;;;;;;4980759;28;20951;-70
2023/07/30 08:20:28;;;;;;;2.20;1.27;;;20.40;29.00;;;;;;4968225;28;20798;-69
2023/07/30 08:22:53;;;;;;;2.23;1.37;;;21.20;22.30;;;;;;4968870;28;20980;-70
2023/07/30 08:25:19;;;;;;;2.20;1.20;;;23.70;17.30;;;;;;4970016;28;20201;-69
2023/07/30 08:27:44;;;;;;;2.07;1.33;;;25.80;5.20;;;;;;4975135;28;20181;-69
2023/07/30 08:30:10;;;;;;;2.20;1.43;;;26.10;3.20;;;;;;4976462;28;20197;-68
2023/07/30 08:32:36;;;;;;;4.07;2.43;;;26.60;1.20;;;;;;4975372;28;20571;-69
2023/07/30 08:35:01;;;;;;;1.70;1.00;;;27.50;1.00;;;;;;4977044;28;20435;-69
2023/07/30 08:37:27;;;;;;;2.93;1.80;;;27.60;1.00;;;;;;4975806;28;20213;-70
2023/07/30 08:39:52;;;;;;;3.37;1.67;;;27.20;1.00;;;;;;4976851;28;20208;-69
2023/07/30 08:42:18;;;;;;;3.33;1.47;;;27.10;1.00;;;;;;4976168;28;20177;-69
2023/07/30 08:44:44;;;;;;;1.80;1.30;;;26.30;1.00;;;;;;4976092;28;20565;-69
2023/07/30 08:47:10;;;;;;;2.60;1.90;;;25.80;1.00;;;;;;4976522;28;20189;-69
2023/07/30 08:49:36;;;;;;;2.23;1.33;;;26.00;1.00;;;;;;4974891;28;20556;-70
2023/07/30 08:52:02;;;;;;;3.50;1.73;;;26.40;1.00;;;;;;4976572;28;20467;-70
2023/07/30 08:54:31;;;;;;;2.10;1.57;;;26.50;1.00;;;;;;4977522;28;20209;-70
2023/07/30 08:56:58;;;;;;;2.73;1.87;;;26.80;1.00;;;;;;4983765;28;20436;-72
2023/07/30 08:59:27;;;;;;;3.80;2.40;;;27.10;1.00;;;;;;4995529;28;20418;-71
2023/07/30 09:01:53;;;;;;;3.43;1.77;;;27.60;1.00;;;;;;4956856;28;20410;-71
2023/07/30 09:04:20;;;;;;;2.20;1.70;;;28.00;1.00;;;;;;4957461;29;20434;-70
2023/07/30 09:06:52;;;;;;;2.30;2.00;;;28.40;1.00;;;;;;4958121;28;20460;-69
2023/07/30 09:09:17;;;;;;;2.53;2.33;;;29.00;1.00;;;;;;4956804;29;20420;-68
2023/07/30 09:11:43;;;;;;;3.63;2.10;;;28.90;1.00;;;;;;4956542;29;20406;-69
2023/07/30 09:14:09;;;;;;;1.70;1.33;;;27.50;1.00;;;;;;4972002;28;20217;-71
2023/07/30 09:16:38;;;;;;;2.37;1.60;;;26.40;1.00;;;;;;4977368;28;20185;-70
2023/07/30 09:19:06;;;;;;;3.20;1.70;;;26.60;1.00;;;;;;4977222;28;20782;-69
2023/07/30 09:21:33;;;;;;;2.80;2.03;;;26.30;1.00;;;;;;4976874;28;20420;-69
2023/07/30 09:24:05;;;;;;;4.43;2.40;;;26.10;1.00;;;;;;4975405;28;20559;-70
2023/07/30 09:26:41;;;;;;;2.53;1.90;;;25.90;1.00;;;;;;4975422;28;20420;-70
2023/07/30 09:29:10;;;;;;;3.77;2.10;;;25.30;1.00;;;;;;4976288;28;20413;-70
2023/07/30 09:31:56;;;;;;;3.10;1.90;;;24.20;1.60;;;;;;4976126;28;20409;-70
2023/07/30 09:34:25;;;;;;;2.67;1.63;;;23.20;4.40;;;;;;4975680;28;20448;-70
2023/07/30 09:36:52;;;;;;;2.90;1.67;;;22.50;7.10;;;;;;4976707;28;20832;-70
2023/07/30 09:39:21;;;;;;;2.40;1.50;;;22.00;10.60;;;;;;4976197;28;20492;-70
2023/07/30 09:41:46;;;;;;;4.60;1.90;;;21.90;10.30;;;;;;4976056;28;20427;-70
2023/07/30 09:44:16;;;;;;;2.47;1.60;;;21.80;9.50;;;;;;4976192;28;20433;-70
2023/07/30 09:46:46;;;;;;;2.37;1.70;;;21.60;8.70;;;;;;4976556;28;20177;-69
2023/07/30 09:49:11;;;;;;;2.63;2.00;;;21.50;9.90;;;;;;4974874;28;20785;-70
2023/07/30 09:51:40;;;;;;;3.53;1.80;;;21.50;10.10;;;;;;4976153;28;20405;-69
2023/07/30 09:54:13;;;;;;;2.13;1.23;;;21.50;8.60;;;;;;4974914;28;20205;-71
2023/07/30 09:56:41;;;;;;;2.70;1.97;;;21.20;9.10;;;;;;4976511;28;20401;-69
2023/07/30 09:59:08;;;;;;;2.63;1.60;;;21.20;10.20;;;;;;4975250;28;20424;-70
2023/07/30 10:01:49;;;;;;;2.67;1.93;;;21.60;10.50;;;;;;4975942;28;20906;-69
2023/07/30 10:04:18;;;;;;;3.40;1.50;;;21.90;7.50;;;;;;4976296;28;20482;-70
2023/07/30 10:07:08;;;;;;;2.37;1.70;;;22.10;4.40;;;;;;4975997;28;20406;-70
2023/07/30 10:09:44;;;;;;;2.00;1.33;;;22.20;3.80;;;;;;4976010;28;20451;-70
2023/07/30 10:12:23;;;;;;;2.17;1.40;;;22.20;2.80;;;;;;4975721;28;20970;-70
2023/07/30 10:14:50;;;;;;;2.00;1.23;;;22.40;2.10;;;;;;4975615;28;20484;-70
2023/07/30 10:17:17;;;;;;;2.00;1.43;;;22.50;1.00;;;;;;4975490;28;20408;-70
2023/07/30 10:19:48;;;;;;;2.30;1.67;;;22.40;2.20;;;;;;4974235;28;20508;-70
2023/07/30 10:22:14;;;;;;;2.00;1.37;;;22.60;1.90;;;;;;4974910;28;20424;-70
2023/07/30 10:24:40;;;;;;;3.20;2.40;;;22.30;3.10;;;;;;4976345;28;20516;-70
2023/07/30 10:27:12;;;;;;;3.30;2.27;;;22.40;3.20;;;;;;4976053;28;20181;-70
2023/07/30 10:29:41;;;;;;;2.03;1.23;;;22.40;2.70;;;;;;4958965;28;20669;-69
2023/07/30 10:32:07;;;;;;;3.10;2.13;;;22.00;3.00;;;;;;4975394;28;20460;-70
2023/07/30 10:34:46;;;;;;;2.50;1.87;;;22.10;3.80;;;;;;4974986;28;20420;-70
2023/07/30 10:37:18;;;;;;;2.70;1.80;;;22.50;2.80;;;;;;4974770;28;20443;-70
2023/07/30 10:39:47;;;;;;;3.03;1.90;;;22.60;1.50;;;;;;4975072;28;20774;-70
2023/07/30 10:42:14;;;;;;;2.73;1.80;;;22.70;2.00;;;;;;4974729;28;20425;-70
2023/07/30 10:44:43;;;;;;;2.47;1.70;;;22.50;3.50;;;;;;4975367;28;20437;-71
2023/07/30 10:47:09;;;;;;;3.07;1.43;;;22.20;3.10;;;;;;4975190;28;20816;-71
2023/07/30 10:49:40;;;;;;;2.20;1.80;;;22.20;1.90;;;;;;4974485;28;20428;-72
2023/07/30 10:52:06;;;;;;;2.33;1.77;;;22.40;1.50;;;;;;4974340;28;20453;-70
2023/07/30 10:54:36;;;;;;;3.10;1.97;;;23.10;1.10;;;;;;4972961;28;20445;-71
2023/07/30 10:57:03;;;;;;;2.90;2.60;;;23.30;1.00;;;;;;4974339;28;20440;-70
2023/07/30 10:59:36;;;;;;;2.60;2.10;;;23.20;1.00;;;;;;4975302;28;20549;-71
2023/07/30 11:02:02;;;;;;;2.90;2.20;;;23.30;1.00;;;;;;4977674;28;20440;-71
2023/07/30 11:04:28;;;;;;;3.50;2.40;;;24.00;1.00;;;;;;4973720;28;20448;-70
2023/07/30 11:06:53;;;;;;;3.07;2.60;;;24.40;1.00;;;;;;4973761;28;20420;-70
2023/07/30 11:09:20;;;;;;;3.27;2.50;;;24.90;1.00;;;;;;4973682;28;20224;-70
2023/07/30 11:11:46;;;;;;;3.87;2.50;;;25.40;1.00;;;;;;4972076;28;20181;-70
2023/07/30 11:14:19;;;;;;;3.27;2.97;;;25.60;1.00;;;;;;4973405;28;20491;-70
2023/07/30 11:16:50;;;;;;;3.67;3.03;;;25.60;1.00;;;;;;4973214;28;20170;-70
2023/07/30 11:19:16;;;;;;;6.90;2.77;;;25.50;1.00;;;;;;4972237;28;20417;-70
2023/07/30 11:21:49;;;;;;;3.17;2.60;;;25.40;1.00;;;;;;4973404;28;20982;-70
2023/07/30 11:24:15;;;;;;;3.13;2.80;;;24.80;1.00;;;;;;4973745;28;20243;-70
2023/07/30 11:26:40;;;;;;;3.17;2.60;;;25.00;1.00;;;;;;4973095;28;20511;-71
2023/07/30 11:29:16;;;;;;;2.43;2.23;;;25.40;1.00;;;;;;4973502;28;20417;-70
2023/07/30 11:31:43;;;;;;;2.60;2.40;;;24.90;1.00;;;;;;4973715;28;20416;-70
2023/07/30 11:34:09;;;;;;;2.87;2.57;;;24.60;1.00;;;;;;4973411;28;20444;-70
2023/07/30 11:36:35;;;;;;;2.60;2.40;;;24.70;1.00;;;;;;4973436;28;20421;-71
2023/07/30 11:39:01;;;;;;;3.20;2.70;;;24.90;1.00;;;;;;4973245;28;20417;-71
2023/07/30 11:41:27;;;;;;;3.37;3.07;;;24.90;1.00;;;;;;4973165;28;20186;-70
2023/07/30 11:43:54;;;;;;;3.23;2.90;;;24.60;1.00;;;;;;4973980;28;20444;-70
2023/07/30 11:46:22;;;;;;;3.03;2.80;;;24.30;1.00;;;;;;4973466;28;20499;-70
2023/07/30 11:48:52;;;;;;;2.57;2.37;;;24.00;1.00;;;;;;4972163;28;20476;-71
2023/07/30 11:51:26;;;;;;;2.63;2.43;;;24.00;1.00;;;;;;4973591;28;20798;-70
2023/07/30 11:54:01;;;;;;;2.90;2.70;;;23.70;1.00;;;;;;4973065;28;20515;-70
2023/07/30 11:56:28;;;;;;;3.10;2.80;;;24.10;1.00;;;;;;4972095;28;20503;-71
2023/07/30 11:59:00;;;;;;;3.80;3.17;;;24.30;1.00;;;;;;4973152;28;20416;-69
2023/07/30 12:01:28;;;;;;;3.20;2.90;;;24.40;1.00;;;;;;4974709;28;20503;-70
2023/07/30 12:03:56;;;;;;;3.60;2.83;;;24.80;1.00;;;;;;4977300;28;20447;-70
2023/07/30 12:06:21;;;;;;;4.57;3.03;;;25.00;1.00;;;;;;4976819;28;20508;-71
2023/07/30 12:08:49;;;;;;;3.27;3.00;;;24.70;1.00;;;;;;4977092;28;20499;-71
2023/07/30 12:11:21;;;;;;;10.33;3.20;;;24.60;1.00;;;;;;4975513;28;20696;-71
2023/07/30 12:13:51;;;;;;;2.83;2.63;;;24.50;1.00;;;;;;4976503;28;20556;-70
2023/07/30 12:16:16;;;;;;;3.70;3.27;;;24.70;1.00;;;;;;4975789;28;20420;-69
2023/07/30 12:18:45;;;;;;;3.73;3.43;;;24.80;1.00;;;;;;4976835;28;20471;-70
2023/07/30 12:21:12;;;;;;;4.40;4.00;;;25.00;1.00;;;;;;4976769;28;20177;-69
2023/07/30 12:23:38;;;;;;;5.13;3.47;;;24.80;1.00;;;;;;4976542;28;20432;-70
2023/07/30 12:26:06;;;;;;;3.30;3.00;;;24.90;1.00;;;;;;4976713;28;20823;-70
2023/07/30 12:28:36;;;;;;;3.80;3.40;;;24.70;1.00;;;;;;4976585;28;20420;-70
2023/07/30 12:31:02;;;;;;;3.70;2.70;;;24.60;1.00;;;;;;4976510;28;20420;-70
2023/07/30 12:33:27;;;;;;;3.40;3.10;;;24.50;1.00;;;;;;4976347;28;20467;-70
2023/07/30 12:35:53;;;;;;;3.67;3.10;;;24.60;1.00;;;;;;4976528;28;20236;-69
2023/07/30 12:38:19;;;;;;;3.20;3.00;;;24.40;1.00;;;;;;4976716;28;20170;-69
2023/07/30 12:40:44;;;;;;;3.57;3.37;;;24.50;1.00;;;;;;4976285;28;20416;-70
2023/07/30 12:43:10;;;;;;;3.40;3.03;;;24.40;1.00;;;;;;4976122;28;20182;-69
2023/07/30 12:45:35;;;;;;;3.47;3.17;;;24.20;1.00;;;;;;4976176;28;20232;-69
2023/07/30 12:48:01;;;;;;;3.60;3.30;;;24.30;1.00;;;;;;4976395;28;20181;-69